createdAt,value
2022-10-19T03:10:47.256Z,2.42
2022-10-19T03:13:49.700Z,2.45
2022-10-19T03:16:51.810Z,2.97
2022-10-19T03:19:54.133Z,3.15
2022-10-19T03:22:56.230Z,3.22
2022-10-19T03:25:58.589Z,4.30
2022-10-19T03:29:00.666Z,2.72
2022-10-19T03:32:03.428Z,3.70
2022-10-19T03:35:06.124Z,2.62
2022-10-19T03:38:08.448Z,2.22
2022-10-19T03:41:13.610Z,2.85
2022-10-19T03:44:15.928Z,3.15
2022-10-19T03:47:17.963Z,3.85
2022-10-19T03:50:21.144Z,3.20
2022-10-19T03:53:23.226Z,2.90
2022-10-19T03:56:27.580Z,2.80
2022-10-19T03:59:29.650Z,2.50
2022-10-19T04:02:31.966Z,3.00
2022-10-19T04:05:34.312Z,2.72
2022-10-19T04:08:36.380Z,1.85
2022-10-19T04:11:38.864Z,3.50
2022-10-19T04:14:56.206Z,3.33
2022-10-19T04:17:59.403Z,3.45
2022-10-19T04:21:03.945Z,2.15
2022-10-19T04:24:13.641Z,4.05
2022-10-19T04:27:15.702Z,3.50
2022-10-19T04:30:18.009Z,2.75
2022-10-19T04:33:20.212Z,3.50
2022-10-19T04:36:23.000Z,3.47
2022-10-19T04:39:25.031Z,3.87
2022-10-19T04:42:27.343Z,3.80
2022-10-19T04:45:29.393Z,3.92
2022-10-19T04:48:32.017Z,4.10
2022-10-19T04:51:34.599Z,2.55
2022-10-19T04:54:36.951Z,3.37
2022-10-19T04:57:39.000Z,3.37
2022-10-19T05:00:41.383Z,3.72
2022-10-19T05:03:44.423Z,3.22
2022-10-19T05:06:46.757Z,2.95
2022-10-19T05:09:48.833Z,2.62
2022-10-19T05:12:51.140Z,4.22
2022-10-19T05:15:58.049Z,3.95
2022-10-19T05:19:01.559Z,3.28
2022-10-19T05:22:03.672Z,3.47
2022-10-19T05:25:07.409Z,3.35
2022-10-19T05:28:09.440Z,2.90
2022-10-19T05:31:18.439Z,3.15
2022-10-19T05:34:20.612Z,2.58
2022-10-19T05:37:23.349Z,3.45
2022-10-19T05:40:25.624Z,2.60
2022-10-19T05:43:27.984Z,2.53
2022-10-19T05:46:31.097Z,3.00
2022-10-19T05:49:33.432Z,2.97
2022-10-19T05:52:35.491Z,2.55
2022-10-19T05:55:37.826Z,2.62
2022-10-19T05:58:40.427Z,1.87
2022-10-19T06:01:42.912Z,2.20
2022-10-19T06:04:45.282Z,2.25
2022-10-19T06:07:47.330Z,2.05
2022-10-19T06:10:50.249Z,3.10
2022-10-19T06:13:55.779Z,2.40
2022-10-19T06:16:58.110Z,2.20
2022-10-19T06:20:00.161Z,2.40
2022-10-19T06:23:02.583Z,2.70
2022-10-19T06:26:10.834Z,1.80
2022-10-19T06:29:13.149Z,2.05
2022-10-19T06:32:15.285Z,2.17
2022-10-19T06:35:18.027Z,1.73
2022-10-19T06:38:20.349Z,1.83
2022-10-19T06:41:23.564Z,0.98
2022-10-19T06:44:25.649Z,1.67
2022-10-19T06:47:33.218Z,2.22
2022-10-19T06:50:35.526Z,2.12
2022-10-19T06:53:37.946Z,2.15
2022-10-19T06:56:40.067Z,3.53
2022-10-19T06:59:42.415Z,2.47
2022-10-19T07:02:44.541Z,1.98
2022-10-19T07:05:53.607Z,2.47
2022-10-19T07:08:55.694Z,2.40
2022-10-19T07:11:57.987Z,1.70
2022-10-19T07:15:00.056Z,2.08
2022-10-19T07:18:02.382Z,1.45
2022-10-19T07:21:07.267Z,1.50
2022-10-19T07:24:09.874Z,1.30
2022-10-19T07:27:12.725Z,1.70
2022-10-19T07:30:15.445Z,2.50
2022-10-19T07:36:25.798Z,2.10
2022-10-19T07:39:27.882Z,1.73
2022-10-19T07:42:33.018Z,1.52
2022-10-19T07:45:35.162Z,2.15
2022-10-19T07:48:37.637Z,2.05
2022-10-19T07:51:40.395Z,2.50
2022-10-19T07:54:42.850Z,588.75
2022-10-19T07:57:49.219Z,612.65
2022-10-19T08:00:51.573Z,634.55
2022-10-19T08:07:18.021Z,643.72
2022-10-19T08:10:20.358Z,645.10
2022-10-19T08:13:23.585Z,644.53
2022-10-19T08:16:32.754Z,652.50
2022-10-19T08:19:35.280Z,649.75
2022-10-19T08:22:37.856Z,657.30
2022-10-19T08:25:39.947Z,652.50
2022-10-19T08:28:42.335Z,649.12
2022-10-19T08:31:46.350Z,656.83
2022-10-19T08:34:48.655Z,656.65
2022-10-19T08:37:51.002Z,647.97
2022-10-19T08:40:53.876Z,650.80
2022-10-19T08:43:59.162Z,643.03
2022-10-19T08:50:24.512Z,629.72
2022-10-19T08:53:50.238Z,642.08
2022-10-19T08:57:22.393Z,629.40
2022-10-19T09:00:43.200Z,643.63
2022-10-19T09:04:07.377Z,623.72
2022-10-19T09:07:26.011Z,630.87
2022-10-19T09:10:40.611Z,631.20
2022-10-19T09:14:05.849Z,625.42
2022-10-19T09:17:15.341Z,617.63
2022-10-19T09:20:25.177Z,625.12
2022-10-19T09:23:42.606Z,615.35
2022-10-19T09:26:55.033Z,630.15
2022-10-19T09:30:01.194Z,615.65
2022-10-19T09:33:03.696Z,623.70
2022-10-19T09:36:07.838Z,616.55
2022-10-19T09:39:12.975Z,607.90
2022-10-19T09:42:33.201Z,632.85
2022-10-19T09:46:11.603Z,629.40
2022-10-19T09:49:37.563Z,622.33
2022-10-19T09:52:40.774Z,616.12
2022-10-19T09:55:44.100Z,637.00
2022-10-19T09:58:58.035Z,647.00
2022-10-19T10:02:11.480Z,639.53
2022-10-19T10:05:15.160Z,637.20
2022-10-19T10:08:25.593Z,635.30
2022-10-19T10:11:32.547Z,644.20
2022-10-19T10:14:39.833Z,627.80
2022-10-19T10:17:46.180Z,619.13
2022-10-19T10:21:12.097Z,634.78
2022-10-19T10:24:14.317Z,626.85
2022-10-19T10:27:30.080Z,620.10
2022-10-19T10:30:36.292Z,633.42
2022-10-19T10:33:46.160Z,620.28
2022-10-19T10:36:51.486Z,632.12
2022-10-19T10:39:57.905Z,622.78
2022-10-19T10:43:08.686Z,633.25
2022-10-19T10:46:19.675Z,637.60
2022-10-19T10:49:42.642Z,614.35
2022-10-19T10:53:00.866Z,626.55
2022-10-19T10:56:05.694Z,614.47
2022-10-19T10:59:26.436Z,625.38
2022-10-19T11:02:46.241Z,611.28
2022-10-19T11:05:53.218Z,614.37
2022-10-19T11:09:21.832Z,605.67
2022-10-19T11:12:35.797Z,608.55
2022-10-19T11:15:55.192Z,607.38
2022-10-19T11:19:06.719Z,591.42
2022-10-19T11:22:28.308Z,595.20
2022-10-19T11:25:35.869Z,589.92
2022-10-19T11:28:56.635Z,606.05
2022-10-19T11:31:58.718Z,594.25
2022-10-19T11:35:15.165Z,600.62
2022-10-19T11:38:20.863Z,611.58
2022-10-19T11:42:06.608Z,604.12
2022-10-19T11:45:48.584Z,625.58
2022-10-19T11:49:13.004Z,633.78
2022-10-19T11:52:27.315Z,634.40
2022-10-19T11:55:54.578Z,640.10
2022-10-19T11:59:21.630Z,639.42
2022-10-19T12:03:03.714Z,618.03
2022-10-19T12:06:31.990Z,648.45
2022-10-19T12:09:57.848Z,624.40
2022-10-19T12:13:08.878Z,623.60
2022-10-19T12:16:14.143Z,619.37
2022-10-19T12:22:25.135Z,621.08
2022-10-19T12:25:28.022Z,633.92
2022-10-19T12:28:37.005Z,621.95
2022-10-19T12:31:40.432Z,616.92
2022-10-19T12:34:52.461Z,616.35
2022-10-19T12:38:00.445Z,626.08
2022-10-19T12:41:12.994Z,616.72
2022-10-19T12:44:18.883Z,630.60
2022-10-19T12:47:23.429Z,631.05
2022-10-19T12:50:48.555Z,615.28
2022-10-19T12:53:50.845Z,632.83
2022-10-19T12:56:55.500Z,629.97
2022-10-19T13:00:24.231Z,631.25
2022-10-19T13:03:41.172Z,609.20
2022-10-19T13:06:49.270Z,629.30
2022-10-19T13:10:01.422Z,623.70
2022-10-19T13:13:04.556Z,621.47
2022-10-19T13:16:28.792Z,628.30
2022-10-19T13:19:30.961Z,633.00
2022-10-19T13:22:33.732Z,619.58
2022-10-19T13:25:39.598Z,622.08
2022-10-19T13:28:53.296Z,616.03
2022-10-19T13:31:55.403Z,621.45
2022-10-19T13:35:29.426Z,618.63
2022-10-19T13:38:39.055Z,620.25
2022-10-19T13:41:47.115Z,615.83
2022-10-19T13:44:52.726Z,620.05
2022-10-19T13:48:08.522Z,622.05
2022-10-19T13:51:42.849Z,611.83
2022-10-19T13:54:45.067Z,622.58
2022-10-19T13:58:05.906Z,619.70
2022-10-19T14:01:33.203Z,631.37
2022-10-19T14:04:54.482Z,626.35
2022-10-19T14:08:10.162Z,621.22
2022-10-19T14:11:14.164Z,628.50
2022-10-19T14:14:20.111Z,641.60
2022-10-19T14:17:25.445Z,636.92
2022-10-19T14:20:33.555Z,653.07
2022-10-19T14:23:40.031Z,633.22
2022-10-19T14:29:47.522Z,638.37
2022-10-19T14:32:49.823Z,644.08
2022-10-19T14:35:53.178Z,624.22
2022-10-19T14:38:56.295Z,616.72
2022-10-19T14:42:09.521Z,627.60
2022-10-19T14:45:19.827Z,631.33
2022-10-19T14:48:22.154Z,639.53
2022-10-19T14:51:43.095Z,637.90
2022-10-19T14:54:50.192Z,636.33
2022-10-19T14:57:53.773Z,639.65
2022-10-19T15:00:56.561Z,626.22
2022-10-19T15:03:58.776Z,615.25
2022-10-19T15:07:03.764Z,615.17
2022-10-19T15:10:16.541Z,632.22
2022-10-19T15:13:33.254Z,625.95
2022-10-19T15:16:58.171Z,605.67
